sensor_id;sensor_type;location;lat;lon;timestamp;P1;durP1;ratioP1;P2;durP2;ratioP2
3274;SDS011;1649;53.672;10.064;2023-06-26T00:00:44;13.03;;;9.60;;
3274;SDS011;1649;53.672;10.064;2023-06-26T00:03:12;12.93;;;9.80;;
3274;SDS011;1649;53.672;10.064;2023-06-26T00:05:39;11.23;;;9.40;;
3274;SDS011;1649;53.672;10.064;2023-06-26T00:08:06;15.53;;;10.30;;
3274;SDS011;1649;53.672;10.064;2023-06-26T00:10:31;12.67;;;9.53;;
3274;SDS011;1649;53.672;10.064;2023-06-26T00:12:57;12.20;;;10.00;;
3274;SDS011;1649;53.672;10.064;2023-06-26T00:15:22;12.80;;;10.83;;
3274;SDS011;1649;53.672;10.064;2023-06-26T00:17:49;13.10;;;11.70;;
3274;SDS011;1649;53.672;10.064;2023-06-26T00:20:15;14.30;;;11.83;;
3274;SDS011;1649;53.672;10.064;2023-06-26T00:22:41;14.83;;;11.67;;
3274;SDS011;1649;53.672;10.064;2023-06-26T00:25:07;17.07;;;12.43;;
3274;SDS011;1649;53.672;10.064;2023-06-26T00:27:33;14.03;;;12.03;;
3274;SDS011;1649;53.672;10.064;2023-06-26T00:29:59;15.50;;;13.90;;
3274;SDS011;1649;53.672;10.064;2023-06-26T00:32:24;14.57;;;12.60;;
3274;SDS011;1649;53.672;10.064;2023-06-26T00:34:50;15.20;;;12.73;;
3274;SDS011;1649;53.672;10.064;2023-06-26T00:37:15;15.40;;;13.03;;
3274;SDS011;1649;53.672;10.064;2023-06-26T00:39:41;16.10;;;13.80;;
3274;SDS011;1649;53.672;10.064;2023-06-26T00:42:06;15.97;;;14.27;;
3274;SDS011;1649;53.672;10.064;2023-06-26T00:44:32;18.10;;;15.57;;
3274;SDS011;1649;53.672;10.064;2023-06-26T00:46:57;15.13;;;13.50;;
3274;SDS011;1649;53.672;10.064;2023-06-26T00:49:23;15.40;;;13.80;;
3274;SDS011;1649;53.672;10.064;2023-06-26T00:51:49;16.80;;;15.00;;
3274;SDS011;1649;53.672;10.064;2023-06-26T00:54:15;17.63;;;15.73;;
3274;SDS011;1649;53.672;10.064;2023-06-26T00:56:45;18.27;;;16.27;;
3274;SDS011;1649;53.672;10.064;2023-06-26T00:59:12;17.07;;;15.03;;
3274;SDS011;1649;53.672;10.064;2023-06-26T01:01:38;18.97;;;16.40;;
3274;SDS011;1649;53.672;10.064;2023-06-26T01:04:03;17.63;;;15.73;;
3274;SDS011;1649;53.672;10.064;2023-06-26T01:06:30;17.27;;;15.57;;
3274;SDS011;1649;53.672;10.064;2023-06-26T01:09:00;16.57;;;14.87;;
3274;SDS011;1649;53.672;10.064;2023-06-26T01:11:26;19.63;;;16.80;;
3274;SDS011;1649;53.672;10.064;2023-06-26T01:13:53;19.00;;;17.00;;
3274;SDS011;1649;53.672;10.064;2023-06-26T01:16:20;18.17;;;15.93;;
3274;SDS011;1649;53.672;10.064;2023-06-26T01:18:46;18.17;;;16.27;;
3274;SDS011;1649;53.672;10.064;2023-06-26T01:21:13;18.10;;;16.20;;
3274;SDS011;1649;53.672;10.064;2023-06-26T01:24:22;17.57;;;15.67;;
3274;SDS011;1649;53.672;10.064;2023-06-26T01:26:35;19.30;;;17.20;;
3274;SDS011;1649;53.672;10.064;2023-06-26T01:29:02;20.23;;;17.90;;
3274;SDS011;1649;53.672;10.064;2023-06-26T01:31:30;18.93;;;16.93;;
3274;SDS011;1649;53.672;10.064;2023-06-26T01:33:57;16.90;;;15.13;;
3274;SDS011;1649;53.672;10.064;2023-06-26T01:36:24;18.00;;;15.20;;
3274;SDS011;1649;53.672;10.064;2023-06-26T01:38:50;23.23;;;17.70;;
3274;SDS011;1649;53.672;10.064;2023-06-26T01:41:16;18.80;;;16.90;;
3274;SDS011;1649;53.672;10.064;2023-06-26T01:55:04;20.67;;;18.57;;
3274;SDS011;1649;53.672;10.064;2023-06-26T01:57:36;19.23;;;17.23;;
3274;SDS011;1649;53.672;10.064;2023-06-26T02:00:04;19.60;;;17.53;;
3274;SDS011;1649;53.672;10.064;2023-06-26T02:02:33;19.93;;;17.83;;
3274;SDS011;1649;53.672;10.064;2023-06-26T02:04:59;19.87;;;17.80;;
3274;SDS011;1649;53.672;10.064;2023-06-26T02:07:25;19.87;;;17.77;;
3274;SDS011;1649;53.672;10.064;2023-06-26T02:09:50;20.33;;;18.27;;
3274;SDS011;1649;53.672;10.064;2023-06-26T02:12:16;18.77;;;16.13;;
3274;SDS011;1649;53.672;10.064;2023-06-26T02:14:41;18.80;;;16.80;;
3274;SDS011;1649;53.672;10.064;2023-06-26T02:17:07;20.67;;;17.87;;
3274;SDS011;1649;53.672;10.064;2023-06-26T02:19:33;19.70;;;17.67;;
3274;SDS011;1649;53.672;10.064;2023-06-26T02:21:59;18.43;;;16.30;;
3274;SDS011;1649;53.672;10.064;2023-06-26T02:24:24;19.47;;;16.13;;
3274;SDS011;1649;53.672;10.064;2023-06-26T02:26:52;17.70;;;15.90;;
3274;SDS011;1649;53.672;10.064;2023-06-26T02:29:17;23.23;;;17.23;;
3274;SDS011;1649;53.672;10.064;2023-06-26T02:31:43;17.87;;;15.80;;
3274;SDS011;1649;53.672;10.064;2023-06-26T02:34:09;17.10;;;15.30;;
3274;SDS011;1649;53.672;10.064;2023-06-26T02:36:35;19.40;;;17.40;;
3274;SDS011;1649;53.672;10.064;2023-06-26T02:39:01;18.20;;;16.33;;
3274;SDS011;1649;53.672;10.064;2023-06-26T02:41:26;17.83;;;15.93;;
3274;SDS011;1649;53.672;10.064;2023-06-26T02:43:52;17.50;;;15.70;;
3274;SDS011;1649;53.672;10.064;2023-06-26T02:46:17;18.40;;;16.00;;
3274;SDS011;1649;53.672;10.064;2023-06-26T02:48:43;19.10;;;16.10;;
3274;SDS011;1649;53.672;10.064;2023-06-26T02:51:08;16.93;;;15.10;;
3274;SDS011;1649;53.672;10.064;2023-06-26T02:53:34;19.83;;;16.60;;
3274;SDS011;1649;53.672;10.064;2023-06-26T02:55:59;17.00;;;14.70;;
3274;SDS011;1649;53.672;10.064;2023-06-26T02:58:25;16.60;;;14.77;;
3274;SDS011;1649;53.672;10.064;2023-06-26T03:00:50;20.00;;;14.83;;
3274;SDS011;1649;53.672;10.064;2023-06-26T03:03:16;17.23;;;15.43;;
3274;SDS011;1649;53.672;10.064;2023-06-26T03:05:42;17.10;;;14.93;;
3274;SDS011;1649;53.672;10.064;2023-06-26T03:08:07;17.50;;;15.30;;
3274;SDS011;1649;53.672;10.064;2023-06-26T03:10:33;16.73;;;14.90;;
3274;SDS011;1649;53.672;10.064;2023-06-26T03:12:59;17.17;;;15.37;;
3274;SDS011;1649;53.672;10.064;2023-06-26T03:15:24;17.67;;;15.80;;
3274;SDS011;1649;53.672;10.064;2023-06-26T03:17:50;18.20;;;14.63;;
3274;SDS011;1649;53.672;10.064;2023-06-26T03:20:15;16.90;;;15.10;;
3274;SDS011;1649;53.672;10.064;2023-06-26T03:22:41;16.87;;;15.07;;
3274;SDS011;1649;53.672;10.064;2023-06-26T03:25:06;16.63;;;14.80;;
3274;SDS011;1649;53.672;10.064;2023-06-26T03:27:32;17.07;;;14.90;;
3274;SDS011;1649;53.672;10.064;2023-06-26T03:29:58;16.73;;;15.00;;
3274;SDS011;1649;53.672;10.064;2023-06-26T03:32:23;16.50;;;14.83;;
3274;SDS011;1649;53.672;10.064;2023-06-26T03:34:49;18.43;;;15.80;;
3274;SDS011;1649;53.672;10.064;2023-06-26T03:37:14;16.50;;;14.47;;
3274;SDS011;1649;53.672;10.064;2023-06-26T03:39:40;17.13;;;14.47;;
3274;SDS011;1649;53.672;10.064;2023-06-26T03:42:06;15.97;;;14.30;;
3274;SDS011;1649;53.672;10.064;2023-06-26T03:44:31;15.37;;;13.60;;
3274;SDS011;1649;53.672;10.064;2023-06-26T03:46:57;16.40;;;14.20;;
3274;SDS011;1649;53.672;10.064;2023-06-26T03:49:22;16.67;;;14.60;;
3274;SDS011;1649;53.672;10.064;2023-06-26T03:51:48;16.90;;;14.93;;
3274;SDS011;1649;53.672;10.064;2023-06-26T03:54:14;15.13;;;13.27;;
3274;SDS011;1649;53.672;10.064;2023-06-26T03:56:39;16.10;;;14.40;;
3274;SDS011;1649;53.672;10.064;2023-06-26T03:59:05;14.93;;;13.43;;
3274;SDS011;1649;53.672;10.064;2023-06-26T04:01:30;15.13;;;13.53;;
3274;SDS011;1649;53.672;10.064;2023-06-26T04:03:56;14.93;;;13.07;;
3274;SDS011;1649;53.672;10.064;2023-06-26T04:06:21;16.20;;;14.03;;
3274;SDS011;1649;53.672;10.064;2023-06-26T04:08:47;14.83;;;13.33;;
3274;SDS011;1649;53.672;10.064;2023-06-26T04:11:13;16.60;;;14.27;;
3274;SDS011;1649;53.672;10.064;2023-06-26T04:13:38;16.20;;;14.03;;
3274;SDS011;1649;53.672;10.064;2023-06-26T04:16:04;18.80;;;14.07;;
3274;SDS011;1649;53.672;10.064;2023-06-26T04:18:31;16.93;;;13.30;;
3274;SDS011;1649;53.672;10.064;2023-06-26T04:21:03;14.73;;;12.77;;
3274;SDS011;1649;53.672;10.064;2023-06-26T04:23:29;16.17;;;13.20;;
3274;SDS011;1649;53.672;10.064;2023-06-26T04:25:55;15.40;;;13.20;;
3274;SDS011;1649;53.672;10.064;2023-06-26T04:28:23;15.23;;;12.80;;
3274;SDS011;1649;53.672;10.064;2023-06-26T04:30:48;14.67;;;12.50;;
3274;SDS011;1649;53.672;10.064;2023-06-26T04:33:14;17.87;;;13.20;;
3274;SDS011;1649;53.672;10.064;2023-06-26T04:35:40;16.53;;;14.33;;
3274;SDS011;1649;53.672;10.064;2023-06-26T04:38:05;14.30;;;12.80;;
3274;SDS011;1649;53.672;10.064;2023-06-26T04:40:31;14.77;;;12.57;;
3274;SDS011;1649;53.672;10.064;2023-06-26T04:42:57;15.17;;;12.93;;
3274;SDS011;1649;53.672;10.064;2023-06-26T04:45:22;15.03;;;12.73;;
3274;SDS011;1649;53.672;10.064;2023-06-26T04:47:48;14.97;;;12.43;;
3274;SDS011;1649;53.672;10.064;2023-06-26T04:50:13;13.97;;;12.30;;
3274;SDS011;1649;53.672;10.064;2023-06-26T04:52:39;16.40;;;12.53;;
3274;SDS011;1649;53.672;10.064;2023-06-26T04:55:04;16.60;;;12.80;;
3274;SDS011;1649;53.672;10.064;2023-06-26T04:57:30;15.40;;;12.20;;
3274;SDS011;1649;53.672;10.064;2023-06-26T04:59:55;14.70;;;12.60;;
3274;SDS011;1649;53.672;10.064;2023-06-26T05:02:21;14.57;;;12.87;;
3274;SDS011;1649;53.672;10.064;2023-06-26T05:04:46;16.90;;;12.47;;
3274;SDS011;1649;53.672;10.064;2023-06-26T05:07:13;14.67;;;11.93;;
3274;SDS011;1649;53.672;10.064;2023-06-26T05:09:38;14.30;;;11.80;;
3274;SDS011;1649;53.672;10.064;2023-06-26T05:12:04;14.10;;;11.77;;
3274;SDS011;1649;53.672;10.064;2023-06-26T05:14:30;15.40;;;12.37;;
3274;SDS011;1649;53.672;10.064;2023-06-26T05:16:55;14.67;;;11.13;;
3274;SDS011;1649;53.672;10.064;2023-06-26T05:19:21;14.13;;;11.10;;
3274;SDS011;1649;53.672;10.064;2023-06-26T05:21:46;15.30;;;11.90;;
3274;SDS011;1649;53.672;10.064;2023-06-26T05:24:13;13.93;;;11.13;;
3274;SDS011;1649;53.672;10.064;2023-06-26T05:26:41;13.50;;;11.67;;
3274;SDS011;1649;53.672;10.064;2023-06-26T05:29:07;13.73;;;11.87;;
3274;SDS011;1649;53.672;10.064;2023-06-26T05:31:33;11.87;;;10.57;;
3274;SDS011;1649;53.672;10.064;2023-06-26T05:34:03;13.93;;;11.10;;
3274;SDS011;1649;53.672;10.064;2023-06-26T05:36:30;14.03;;;11.10;;
3274;SDS011;1649;53.672;10.064;2023-06-26T05:38:58;12.77;;;10.90;;
3274;SDS011;1649;53.672;10.064;2023-06-26T05:41:24;13.30;;;11.23;;
3274;SDS011;1649;53.672;10.064;2023-06-26T05:43:50;13.33;;;11.20;;
3274;SDS011;1649;53.672;10.064;2023-06-26T05:46:15;12.67;;;10.80;;
3274;SDS011;1649;53.672;10.064;2023-06-26T05:48:41;13.80;;;10.87;;
3274;SDS011;1649;53.672;10.064;2023-06-26T05:51:06;13.10;;;10.57;;
3274;SDS011;1649;53.672;10.064;2023-06-26T05:53:32;13.10;;;10.70;;
3274;SDS011;1649;53.672;10.064;2023-06-26T05:55:58;12.17;;;10.33;;
3274;SDS011;1649;53.672;10.064;2023-06-26T05:58:25;12.47;;;10.60;;
3274;SDS011;1649;53.672;10.064;2023-06-26T06:00:54;11.37;;;9.80;;
3274;SDS011;1649;53.672;10.064;2023-06-26T06:03:20;10.87;;;9.27;;
3274;SDS011;1649;53.672;10.064;2023-06-26T06:05:46;11.63;;;10.07;;
3274;SDS011;1649;53.672;10.064;2023-06-26T06:08:11;11.67;;;9.93;;
3274;SDS011;1649;53.672;10.064;2023-06-26T06:10:37;12.40;;;10.53;;
3274;SDS011;1649;53.672;10.064;2023-06-26T06:13:02;14.43;;;10.40;;
3274;SDS011;1649;53.672;10.064;2023-06-26T06:15:28;11.17;;;9.17;;
3274;SDS011;1649;53.672;10.064;2023-06-26T06:17:53;10.87;;;8.83;;
3274;SDS011;1649;53.672;10.064;2023-06-26T06:20:19;12.93;;;9.73;;
3274;SDS011;1649;53.672;10.064;2023-06-26T06:22:45;12.73;;;9.47;;
3274;SDS011;1649;53.672;10.064;2023-06-26T06:25:10;10.67;;;9.43;;
3274;SDS011;1649;53.672;10.064;2023-06-26T06:27:36;15.10;;;9.80;;
3274;SDS011;1649;53.672;10.064;2023-06-26T06:30:01;13.10;;;10.00;;
3274;SDS011;1649;53.672;10.064;2023-06-26T06:32:27;12.87;;;9.83;;
3274;SDS011;1649;53.672;10.064;2023-06-26T06:34:53;11.30;;;9.40;;
3274;SDS011;1649;53.672;10.064;2023-06-26T06:37:18;16.33;;;10.10;;
3274;SDS011;1649;53.672;10.064;2023-06-26T06:39:44;10.97;;;9.57;;
3274;SDS011;1649;53.672;10.064;2023-06-26T06:42:09;12.10;;;9.43;;
3274;SDS011;1649;53.672;10.064;2023-06-26T06:44:35;11.90;;;8.80;;
3274;SDS011;1649;53.672;10.064;2023-06-26T06:47:00;11.73;;;9.87;;
3274;SDS011;1649;53.672;10.064;2023-06-26T06:49:26;10.83;;;9.40;;
3274;SDS011;1649;53.672;10.064;2023-06-26T06:51:51;11.60;;;9.90;;
3274;SDS011;1649;53.672;10.064;2023-06-26T06:54:17;11.23;;;9.63;;
3274;SDS011;1649;53.672;10.064;2023-06-26T06:56:43;13.13;;;10.27;;
3274;SDS011;1649;53.672;10.064;2023-06-26T06:59:08;10.27;;;8.90;;
3274;SDS011;1649;53.672;10.064;2023-06-26T07:01:34;12.97;;;8.83;;
3274;SDS011;1649;53.672;10.064;2023-06-26T07:03:59;15.00;;;9.87;;
3274;SDS011;1649;53.672;10.064;2023-06-26T07:06:25;14.83;;;9.57;;
3274;SDS011;1649;53.672;10.064;2023-06-26T07:08:50;12.50;;;9.57;;
3274;SDS011;1649;53.672;10.064;2023-06-26T07:11:16;11.93;;;9.37;;
3274;SDS011;1649;53.672;10.064;2023-06-26T07:13:41;11.00;;;9.37;;
3274;SDS011;1649;53.672;10.064;2023-06-26T07:16:07;11.97;;;9.50;;
3274;SDS011;1649;53.672;10.064;2023-06-26T07:18:36;11.33;;;8.80;;
3274;SDS011;1649;53.672;10.064;2023-06-26T07:21:02;10.57;;;8.90;;
3274;SDS011;1649;53.672;10.064;2023-06-26T07:23:28;11.07;;;9.20;;
3274;SDS011;1649;53.672;10.064;2023-06-26T07:25:53;12.00;;;9.57;;
3274;SDS011;1649;53.672;10.064;2023-06-26T07:28:19;12.73;;;9.43;;
3274;SDS011;1649;53.672;10.064;2023-06-26T07:30:44;11.73;;;9.30;;
3274;SDS011;1649;53.672;10.064;2023-06-26T07:33:10;10.97;;;9.33;;
3274;SDS011;1649;53.672;10.064;2023-06-26T07:35:35;10.70;;;8.60;;
3274;SDS011;1649;53.672;10.064;2023-06-26T07:38:01;12.00;;;9.20;;
3274;SDS011;1649;53.672;10.064;2023-06-26T07:40:26;15.23;;;9.47;;
3274;SDS011;1649;53.672;10.064;2023-06-26T07:42:52;10.13;;;8.80;;
3274;SDS011;1649;53.672;10.064;2023-06-26T07:45:19;10.13;;;8.20;;
3274;SDS011;1649;53.672;10.064;2023-06-26T07:47:44;10.10;;;8.83;;
3274;SDS011;1649;53.672;10.064;2023-06-26T07:50:10;8.97;;;8.07;;
3274;SDS011;1649;53.672;10.064;2023-06-26T07:52:36;9.70;;;8.40;;
3274;SDS011;1649;53.672;10.064;2023-06-26T07:55:02;10.17;;;8.60;;
3274;SDS011;1649;53.672;10.064;2023-06-26T07:57:28;11.70;;;8.63;;
3274;SDS011;1649;53.672;10.064;2023-06-26T07:59:54;11.60;;;9.20;;
3274;SDS011;1649;53.672;10.064;2023-06-26T08:02:20;10.47;;;8.77;;
3274;SDS011;1649;53.672;10.064;2023-06-26T08:04:46;10.10;;;8.57;;
3274;SDS011;1649;53.672;10.064;2023-06-26T08:07:11;13.83;;;8.93;;
3274;SDS011;1649;53.672;10.064;2023-06-26T08:09:38;10.57;;;9.47;;
3274;SDS011;1649;53.672;10.064;2023-06-26T08:12:04;15.53;;;8.87;;
3274;SDS011;1649;53.672;10.064;2023-06-26T08:14:30;12.90;;;9.30;;
3274;SDS011;1649;53.672;10.064;2023-06-26T08:16:56;10.57;;;9.23;;
3274;SDS011;1649;53.672;10.064;2023-06-26T08:19:22;11.70;;;9.93;;
3274;SDS011;1649;53.672;10.064;2023-06-26T08:21:47;11.47;;;9.83;;
3274;SDS011;1649;53.672;10.064;2023-06-26T08:24:13;11.87;;;9.70;;
3274;SDS011;1649;53.672;10.064;2023-06-26T08:26:42;11.47;;;9.93;;
3274;SDS011;1649;53.672;10.064;2023-06-26T08:29:09;11.20;;;9.13;;
3274;SDS011;1649;53.672;10.064;2023-06-26T08:31:35;12.23;;;9.33;;
3274;SDS011;1649;53.672;10.064;2023-06-26T08:34:01;11.10;;;9.17;;
3274;SDS011;1649;53.672;10.064;2023-06-26T08:36:28;9.70;;;8.70;;
3274;SDS011;1649;53.672;10.064;2023-06-26T08:38:53;10.53;;;9.27;;
3274;SDS011;1649;53.672;10.064;2023-06-26T08:41:19;10.77;;;9.67;;
3274;SDS011;1649;53.672;10.064;2023-06-26T08:43:44;10.73;;;9.20;;
3274;SDS011;1649;53.672;10.064;2023-06-26T08:46:10;10.50;;;8.80;;
3274;SDS011;1649;53.672;10.064;2023-06-26T08:48:36;11.60;;;10.10;;
3274;SDS011;1649;53.672;10.064;2023-06-26T08:51:09;10.87;;;9.67;;
3274;SDS011;1649;53.672;10.064;2023-06-26T08:56:05;10.43;;;9.33;;
3274;SDS011;1649;53.672;10.064;2023-06-26T08:58:33;10.47;;;9.10;;
3274;SDS011;1649;53.672;10.064;2023-06-26T09:01:01;12.30;;;9.70;;
3274;SDS011;1649;53.672;10.064;2023-06-26T09:03:27;11.13;;;9.60;;
3274;SDS011;1649;53.672;10.064;2023-06-26T09:05:53;11.47;;;8.83;;
3274;SDS011;1649;53.672;10.064;2023-06-26T09:08:18;9.87;;;8.83;;
3274;SDS011;1649;53.672;10.064;2023-06-26T09:10:44;12.90;;;8.60;;
3274;SDS011;1649;53.672;10.064;2023-06-26T09:13:09;13.20;;;9.60;;
3274;SDS011;1649;53.672;10.064;2023-06-26T09:15:38;11.10;;;9.90;;
3274;SDS011;1649;53.672;10.064;2023-06-26T09:18:07;11.30;;;10.20;;
3274;SDS011;1649;53.672;10.064;2023-06-26T09:20:33;13.70;;;10.33;;
3274;SDS011;1649;53.672;10.064;2023-06-26T09:22:59;14.83;;;10.47;;
3274;SDS011;1649;53.672;10.064;2023-06-26T09:25:25;10.33;;;9.30;;
3274;SDS011;1649;53.672;10.064;2023-06-26T09:27:51;12.30;;;11.00;;
3274;SDS011;1649;53.672;10.064;2023-06-26T09:30:18;15.53;;;11.73;;
3274;SDS011;1649;53.672;10.064;2023-06-26T09:32:43;13.13;;;11.83;;
3274;SDS011;1649;53.672;10.064;2023-06-26T09:35:09;14.73;;;12.10;;
3274;SDS011;1649;53.672;10.064;2023-06-26T09:37:35;16.90;;;12.77;;
3274;SDS011;1649;53.672;10.064;2023-06-26T09:40:01;16.40;;;13.83;;
3274;SDS011;1649;53.672;10.064;2023-06-26T09:42:28;16.57;;;12.63;;
3274;SDS011;1649;53.672;10.064;2023-06-26T09:44:54;13.50;;;12.10;;
3274;SDS011;1649;53.672;10.064;2023-06-26T09:47:20;16.53;;;13.63;;
3274;SDS011;1649;53.672;10.064;2023-06-26T09:49:46;16.60;;;12.90;;
3274;SDS011;1649;53.672;10.064;2023-06-26T09:52:15;13.40;;;12.00;;
3274;SDS011;1649;53.672;10.064;2023-06-26T09:54:42;14.20;;;11.47;;
3274;SDS011;1649;53.672;10.064;2023-06-26T09:57:10;14.43;;;10.87;;
3274;SDS011;1649;53.672;10.064;2023-06-26T09:59:37;15.70;;;11.80;;
3274;SDS011;1649;53.672;10.064;2023-06-26T10:02:03;13.13;;;11.30;;
3274;SDS011;1649;53.672;10.064;2023-06-26T10:04:29;15.40;;;12.10;;
3274;SDS011;1649;53.672;10.064;2023-06-26T10:06:55;18.67;;;11.20;;
3274;SDS011;1649;53.672;10.064;2023-06-26T10:09:22;13.53;;;11.40;;
3274;SDS011;1649;53.672;10.064;2023-06-26T10:14:19;14.03;;;10.33;;
3274;SDS011;1649;53.672;10.064;2023-06-26T10:16:48;15.70;;;12.60;;
3274;SDS011;1649;53.672;10.064;2023-06-26T10:19:15;16.13;;;13.20;;
3274;SDS011;1649;53.672;10.064;2023-06-26T10:21:46;24.67;;;12.90;;
3274;SDS011;1649;53.672;10.064;2023-06-26T10:24:11;17.17;;;14.17;;
3274;SDS011;1649;53.672;10.064;2023-06-26T10:26:38;18.43;;;14.63;;
3274;SDS011;1649;53.672;10.064;2023-06-26T10:29:09;22.27;;;16.70;;
3274;SDS011;1649;53.672;10.064;2023-06-26T10:31:36;17.60;;;14.60;;
3274;SDS011;1649;53.672;10.064;2023-06-26T10:34:03;19.57;;;15.47;;
3274;SDS011;1649;53.672;10.064;2023-06-26T10:36:31;22.87;;;15.77;;
3274;SDS011;1649;53.672;10.064;2023-06-26T10:38:58;21.37;;;16.77;;
3274;SDS011;1649;53.672;10.064;2023-06-26T10:41:30;21.60;;;17.70;;
3274;SDS011;1649;53.672;10.064;2023-06-26T10:46:33;18.60;;;13.83;;
3274;SDS011;1649;53.672;10.064;2023-06-26T10:49:12;18.90;;;11.47;;
3274;SDS011;1649;53.672;10.064;2023-06-26T10:51:38;17.70;;;10.73;;
3274;SDS011;1649;53.672;10.064;2023-06-26T10:54:13;14.80;;;11.60;;
3274;SDS011;1649;53.672;10.064;2023-06-26T10:56:43;15.60;;;11.70;;
3274;SDS011;1649;53.672;10.064;2023-06-26T10:59:14;18.90;;;11.50;;
3274;SDS011;1649;53.672;10.064;2023-06-26T11:01:40;13.10;;;11.17;;
3274;SDS011;1649;53.672;10.064;2023-06-26T11:04:09;18.03;;;12.03;;
3274;SDS011;1649;53.672;10.064;2023-06-26T11:06:36;14.50;;;10.60;;
3274;SDS011;1649;53.672;10.064;2023-06-26T11:14:25;14.57;;;10.80;;
3274;SDS011;1649;53.672;10.064;2023-06-26T11:16:57;17.77;;;11.40;;
3274;SDS011;1649;53.672;10.064;2023-06-26T11:19:24;16.47;;;11.50;;
3274;SDS011;1649;53.672;10.064;2023-06-26T11:21:52;14.93;;;10.90;;
3274;SDS011;1649;53.672;10.064;2023-06-26T11:24:22;18.37;;;11.80;;
3274;SDS011;1649;53.672;10.064;2023-06-26T11:26:48;14.63;;;10.60;;
3274;SDS011;1649;53.672;10.064;2023-06-26T11:29:14;14.77;;;10.50;;
3274;SDS011;1649;53.672;10.064;2023-06-26T11:31:40;13.60;;;9.83;;
3274;SDS011;1649;53.672;10.064;2023-06-26T11:34:08;14.73;;;8.30;;
3274;SDS011;1649;53.672;10.064;2023-06-26T11:36:36;14.80;;;8.73;;
3274;SDS011;1649;53.672;10.064;2023-06-26T11:39:04;11.87;;;7.33;;
3274;SDS011;1649;53.672;10.064;2023-06-26T11:41:39;16.53;;;7.30;;
3274;SDS011;1649;53.672;10.064;2023-06-26T11:44:06;14.50;;;7.53;;
3274;SDS011;1649;53.672;10.064;2023-06-26T11:46:35;13.53;;;6.70;;
3274;SDS011;1649;53.672;10.064;2023-06-26T11:49:07;15.50;;;7.50;;
3274;SDS011;1649;53.672;10.064;2023-06-26T11:51:33;12.33;;;5.10;;
3274;SDS011;1649;53.672;10.064;2023-06-26T11:54:01;8.53;;;3.97;;
3274;SDS011;1649;53.672;10.064;2023-06-26T11:56:28;11.97;;;3.80;;
3274;SDS011;1649;53.672;10.064;2023-06-26T12:01:26;9.27;;;3.60;;
3274;SDS011;1649;53.672;10.064;2023-06-26T12:03:57;10.10;;;3.03;;
3274;SDS011;1649;53.672;10.064;2023-06-26T12:06:25;10.80;;;3.07;;
3274;SDS011;1649;53.672;10.064;2023-06-26T12:08:51;7.90;;;2.77;;
3274;SDS011;1649;53.672;10.064;2023-06-26T12:11:16;9.07;;;3.00;;
3274;SDS011;1649;53.672;10.064;2023-06-26T12:13:44;6.97;;;2.90;;
3274;SDS011;1649;53.672;10.064;2023-06-26T12:16:11;11.50;;;3.27;;
3274;SDS011;1649;53.672;10.064;2023-06-26T12:18:37;7.00;;;3.00;;
3274;SDS011;1649;53.672;10.064;2023-06-26T12:21:03;11.27;;;3.47;;
3274;SDS011;1649;53.672;10.064;2023-06-26T12:23:32;9.10;;;3.27;;
3274;SDS011;1649;53.672;10.064;2023-06-26T12:25:58;9.83;;;3.40;;
3274;SDS011;1649;53.672;10.064;2023-06-26T12:28:24;10.60;;;3.47;;
3274;SDS011;1649;53.672;10.064;2023-06-26T12:33:44;10.33;;;3.20;;
3274;SDS011;1649;53.672;10.064;2023-06-26T12:36:10;10.10;;;3.03;;
3274;SDS011;1649;53.672;10.064;2023-06-26T12:38:37;11.77;;;3.60;;
3274;SDS011;1649;53.672;10.064;2023-06-26T12:41:02;11.27;;;3.30;;
3274;SDS011;1649;53.672;10.064;2023-06-26T12:43:28;9.70;;;3.00;;
3274;SDS011;1649;53.672;10.064;2023-06-26T12:45:54;8.53;;;3.10;;
3274;SDS011;1649;53.672;10.064;2023-06-26T12:48:20;7.30;;;3.27;;
3274;SDS011;1649;53.672;10.064;2023-06-26T12:50:46;11.50;;;3.10;;
3274;SDS011;1649;53.672;10.064;2023-06-26T12:53:13;8.50;;;2.93;;
3274;SDS011;1649;53.672;10.064;2023-06-26T12:55:38;8.30;;;3.07;;
3274;SDS011;1649;53.672;10.064;2023-06-26T12:58:04;11.10;;;3.60;;
3274;SDS011;1649;53.672;10.064;2023-06-26T13:00:29;11.40;;;3.30;;
3274;SDS011;1649;53.672;10.064;2023-06-26T13:02:56;7.57;;;3.27;;
3274;SDS011;1649;53.672;10.064;2023-06-26T13:05:23;6.60;;;2.97;;
3274;SDS011;1649;53.672;10.064;2023-06-26T13:07:49;11.00;;;3.77;;
3274;SDS011;1649;53.672;10.064;2023-06-26T13:10:14;8.73;;;2.90;;
3274;SDS011;1649;53.672;10.064;2023-06-26T13:12:40;10.23;;;2.93;;
3274;SDS011;1649;53.672;10.064;2023-06-26T13:15:05;8.60;;;2.77;;
3274;SDS011;1649;53.672;10.064;2023-06-26T13:17:32;8.63;;;3.40;;
3274;SDS011;1649;53.672;10.064;2023-06-26T13:19:57;5.90;;;2.70;;
3274;SDS011;1649;53.672;10.064;2023-06-26T13:22:23;9.40;;;2.70;;
3274;SDS011;1649;53.672;10.064;2023-06-26T13:24:48;8.20;;;2.50;;
3274;SDS011;1649;53.672;10.064;2023-06-26T13:27:14;7.87;;;2.60;;
3274;SDS011;1649;53.672;10.064;2023-06-26T13:29:41;9.13;;;3.20;;
3274;SDS011;1649;53.672;10.064;2023-06-26T13:32:07;7.60;;;2.60;;
3274;SDS011;1649;53.672;10.064;2023-06-26T13:34:32;7.90;;;2.83;;
3274;SDS011;1649;53.672;10.064;2023-06-26T13:36:58;8.83;;;3.07;;
3274;SDS011;1649;53.672;10.064;2023-06-26T13:39:24;6.37;;;2.53;;
3274;SDS011;1649;53.672;10.064;2023-06-26T13:41:50;5.83;;;2.60;;
3274;SDS011;1649;53.672;10.064;2023-06-26T13:44:16;5.80;;;2.33;;
3274;SDS011;1649;53.672;10.064;2023-06-26T13:46:41;9.87;;;3.10;;
3274;SDS011;1649;53.672;10.064;2023-06-26T13:49:07;8.57;;;2.67;;
3274;SDS011;1649;53.672;10.064;2023-06-26T13:51:32;9.03;;;3.10;;
3274;SDS011;1649;53.672;10.064;2023-06-26T13:53:58;8.07;;;2.50;;
3274;SDS011;1649;53.672;10.064;2023-06-26T13:56:25;6.37;;;2.30;;
3274;SDS011;1649;53.672;10.064;2023-06-26T13:58:51;6.27;;;2.40;;
3274;SDS011;1649;53.672;10.064;2023-06-26T14:01:16;5.80;;;2.07;;
3274;SDS011;1649;53.672;10.064;2023-06-26T14:03:42;5.87;;;2.23;;
3274;SDS011;1649;53.672;10.064;2023-06-26T14:06:07;7.17;;;2.57;;
3274;SDS011;1649;53.672;10.064;2023-06-26T14:08:33;6.57;;;2.40;;
3274;SDS011;1649;53.672;10.064;2023-06-26T14:10:58;5.33;;;2.10;;
3274;SDS011;1649;53.672;10.064;2023-06-26T14:13:24;6.27;;;1.93;;
3274;SDS011;1649;53.672;10.064;2023-06-26T14:15:50;6.30;;;2.30;;
3274;SDS011;1649;53.672;10.064;2023-06-26T14:18:17;6.47;;;2.17;;
3274;SDS011;1649;53.672;10.064;2023-06-26T14:20:43;6.23;;;2.17;;
3274;SDS011;1649;53.672;10.064;2023-06-26T14:23:09;6.30;;;2.20;;
3274;SDS011;1649;53.672;10.064;2023-06-26T14:25:34;5.80;;;2.00;;
3274;SDS011;1649;53.672;10.064;2023-06-26T14:28:00;7.20;;;2.30;;
3274;SDS011;1649;53.672;10.064;2023-06-26T14:30:26;5.33;;;2.27;;
3274;SDS011;1649;53.672;10.064;2023-06-26T14:32:51;5.53;;;2.10;;
3274;SDS011;1649;53.672;10.064;2023-06-26T14:35:17;8.20;;;2.10;;
3274;SDS011;1649;53.672;10.064;2023-06-26T14:37:43;7.23;;;2.03;;
3274;SDS011;1649;53.672;10.064;2023-06-26T14:40:09;6.23;;;2.53;;
3274;SDS011;1649;53.672;10.064;2023-06-26T14:42:35;7.00;;;1.83;;
3274;SDS011;1649;53.672;10.064;2023-06-26T14:45:00;7.10;;;2.20;;
3274;SDS011;1649;53.672;10.064;2023-06-26T14:47:26;7.77;;;2.20;;
3274;SDS011;1649;53.672;10.064;2023-06-26T14:49:52;6.17;;;2.40;;
3274;SDS011;1649;53.672;10.064;2023-06-26T14:52:18;5.47;;;2.00;;
3274;SDS011;1649;53.672;10.064;2023-06-26T14:54:43;5.57;;;2.07;;
3274;SDS011;1649;53.672;10.064;2023-06-26T14:57:09;7.80;;;2.80;;
3274;SDS011;1649;53.672;10.064;2023-06-26T14:59:34;6.33;;;2.47;;
3274;SDS011;1649;53.672;10.064;2023-06-26T15:02:00;5.13;;;2.60;;
3274;SDS011;1649;53.672;10.064;2023-06-26T15:04:25;5.60;;;2.27;;
3274;SDS011;1649;53.672;10.064;2023-06-26T15:06:51;6.97;;;2.60;;